createdAt,value
2018-10-19T00:00:33.672Z,13.6
2018-10-19T00:15:49.977Z,13.6
2018-10-19T00:31:05.027Z,13.7
2018-10-19T00:46:15.429Z,13.7
2018-10-19T01:01:36.561Z,13.7
2018-10-19T01:16:52.484Z,13.6
2018-10-19T01:32:07.904Z,13.6
2018-10-19T01:47:23.537Z,13.5
2018-10-19T02:02:39.137Z,13.6
2018-10-19T02:17:55.033Z,13.5
2018-10-19T02:33:10.664Z,13.4
2018-10-19T02:48:25.907Z,13.3
2018-10-19T03:03:35.321Z,13.3
2018-10-19T03:18:57.014Z,13.4
2018-10-19T03:34:12.589Z,13.3
2018-10-19T03:49:28.129Z,13.3
2018-10-19T04:04:43.734Z,13.4
2018-10-19T04:19:59.299Z,13.2
2018-10-19T04:35:14.980Z,13
2018-10-19T04:50:30.199Z,12.9
2018-10-19T05:05:45.695Z,12.7
2018-10-19T05:20:54.469Z,12.7
2018-10-19T05:36:16.262Z,12.8
2018-10-19T05:51:31.485Z,12.8
2018-10-19T06:06:51.599Z,12.8
2018-10-19T06:22:02.209Z,12.8
2018-10-19T06:37:17.621Z,12.8
2018-10-19T06:52:32.915Z,12.8
2018-10-19T07:07:48.427Z,12.6
2018-10-19T07:23:03.649Z,12.4
2018-10-19T07:38:12.746Z,12.3
2018-10-19T07:53:33.667Z,12.1
2018-10-19T08:08:48.666Z,12
2018-10-19T08:24:03.677Z,11.8
2018-10-19T08:39:18.580Z,11.7
2018-10-19T08:54:33.464Z,11.5
2018-10-19T09:09:48.472Z,11.5
2018-10-19T09:25:02.962Z,11.5
2018-10-19T09:40:18.405Z,11.5
2018-10-19T09:55:28.158Z,11.8
2018-10-19T10:10:47.700Z,11.7
2018-10-19T10:26:02.668Z,11.7
2018-10-19T10:41:17.828Z,11.8
2018-10-19T10:56:21.907Z,12.1
2018-10-19T11:11:47.561Z,12.3
2018-10-19T11:27:02.780Z,12.5
2018-10-19T11:42:17.935Z,12.3
2018-10-19T11:57:33.079Z,12.3
2018-10-19T12:12:46.170Z,12.3
2018-10-19T12:28:03.420Z,12.3
2018-10-19T12:43:18.547Z,12.4
2018-10-19T12:58:33.848Z,12.5
2018-10-19T13:13:40.027Z,12.5
2018-10-19T13:29:04.453Z,12.7
2018-10-19T13:44:19.811Z,13.2
2018-10-19T13:59:38.390Z,13.2
2018-10-19T14:14:50.890Z,13.3
2018-10-19T14:30:04.678Z,13.3
2018-10-19T14:45:22.058Z,13.2
2018-10-19T15:00:37.766Z,13.2
2018-10-19T15:15:52.957Z,13
2018-10-19T15:30:59.934Z,12.8
2018-10-19T15:46:23.770Z,12.7
2018-10-19T16:01:39.203Z,12.7
2018-10-19T16:16:55.573Z,12.7
2018-10-19T16:32:09.736Z,12.6
2018-10-19T16:47:23.634Z,12.5
2018-10-19T17:02:40.435Z,12.6
2018-10-19T17:17:55.696Z,12.6
2018-10-19T17:33:10.915Z,12.7
2018-10-19T17:48:18.380Z,12.7
2018-10-19T18:03:41.483Z,12.8
2018-10-19T18:18:56.840Z,12.7
2018-10-19T18:34:12.164Z,12.7
2018-10-19T18:49:27.470Z,12.7
2018-10-19T19:04:42.054Z,13
2018-10-19T19:19:58.339Z,12.8
2018-10-19T19:35:13.709Z,12.7
2018-10-19T19:50:29.028Z,12.6
2018-10-19T20:05:36.535Z,12.5
2018-10-19T20:20:59.653Z,12.5
2018-10-19T20:36:15.764Z,12.5
2018-10-19T20:51:30.003Z,12.5
2018-10-19T21:06:45.257Z,12.4
2018-10-19T21:21:59.450Z,12.3
2018-10-19T21:37:15.667Z,12.3
2018-10-19T21:52:30.705Z,12.3
2018-10-19T22:07:46.173Z,12.3
2018-10-19T22:22:53.103Z,12.5
2018-10-19T22:38:16.251Z,12.4
2018-10-19T22:53:31.450Z,12.2
2018-10-19T23:08:46.729Z,12.3
2018-10-19T23:24:01.977Z,12.2
2018-10-19T23:39:15.640Z,12.2
2018-10-19T23:54:32.031Z,12.1
